createdAt,value
2019-02-10T00:01:11.469Z,4.10
2019-02-10T00:03:41.076Z,3.62
2019-02-10T00:06:10.566Z,3.90
2019-02-10T00:08:39.686Z,4.20
2019-02-10T00:11:09.077Z,4.37
2019-02-10T00:13:38.483Z,4.08
2019-02-10T00:16:10.429Z,4.15
2019-02-10T00:18:39.549Z,4.12
2019-02-10T00:21:08.738Z,3.70
2019-02-10T00:23:37.867Z,3.37
2019-02-10T00:26:06.981Z,3.67
2019-02-10T00:28:36.093Z,3.60
2019-02-10T00:31:05.218Z,3.42
2019-02-10T00:33:34.328Z,3.55
2019-02-10T00:36:03.446Z,3.92
2019-02-10T00:38:33.640Z,3.47
2019-02-10T00:41:03.046Z,3.15
2019-02-10T00:43:32.165Z,3.27
2019-02-10T00:46:01.283Z,3.58
2019-02-10T00:48:30.402Z,3.87
2019-02-10T00:50:59.524Z,4.58
2019-02-10T00:53:28.638Z,3.20
2019-02-10T00:55:57.757Z,4.00
2019-02-10T00:58:26.883Z,3.95
2019-02-10T01:00:56.329Z,3.47
2019-02-10T01:03:25.447Z,3.90
2019-02-10T01:05:54.566Z,4.17
2019-02-10T01:08:23.680Z,3.42
2019-02-10T01:10:52.796Z,4.03
2019-02-10T01:13:21.919Z,3.77
2019-02-10T01:15:51.038Z,4.60
2019-02-10T01:18:20.153Z,4.37
2019-02-10T01:20:49.278Z,3.70
2019-02-10T01:23:18.707Z,4.17
2019-02-10T01:25:47.829Z,4.17
2019-02-10T01:28:16.946Z,3.87
2019-02-10T01:30:46.715Z,3.30
2019-02-10T01:33:16.131Z,4.40
2019-02-10T01:35:45.523Z,4.12
2019-02-10T01:38:14.642Z,3.52
2019-02-10T01:40:43.766Z,3.75
2019-02-10T01:43:12.892Z,4.58
2019-02-10T01:45:42.327Z,3.52
2019-02-10T01:48:11.723Z,3.58
2019-02-10T01:50:40.851Z,3.45
2019-02-10T01:53:09.966Z,3.33
2019-02-10T01:55:39.085Z,3.90
2019-02-10T01:58:08.517Z,4.65
2019-02-10T02:00:37.640Z,3.87
2019-02-10T02:03:06.992Z,3.45
2019-02-10T02:05:36.112Z,4.30
2019-02-10T02:08:05.251Z,4.30
2019-02-10T02:10:34.337Z,4.35
2019-02-10T02:13:03.453Z,4.97
2019-02-10T02:15:32.580Z,4.65
2019-02-10T02:18:01.692Z,4.17
2019-02-10T02:20:30.805Z,3.87
2019-02-10T02:22:59.917Z,4.53
2019-02-10T02:25:29.034Z,4.42
2019-02-10T02:27:58.150Z,4.08
2019-02-10T02:30:27.273Z,4.65
2019-02-10T02:32:56.383Z,4.12
2019-02-10T02:35:25.491Z,3.25
2019-02-10T02:37:54.875Z,4.00
2019-02-10T02:40:23.988Z,5.40
2019-02-10T02:42:53.098Z,3.75
2019-02-10T02:45:22.206Z,3.60
2019-02-10T02:47:51.325Z,3.62
2019-02-10T02:50:20.473Z,3.40
2019-02-10T02:52:49.547Z,3.22
2019-02-10T02:55:18.670Z,2.90
2019-02-10T02:57:47.788Z,3.02
2019-02-10T03:00:16.900Z,3.17
2019-02-10T03:02:46.025Z,3.10
2019-02-10T03:05:15.130Z,3.12
2019-02-10T03:07:44.245Z,3.55
2019-02-10T03:10:13.351Z,3.08
2019-02-10T03:12:42.467Z,2.67
2019-02-10T03:15:11.570Z,3.20
2019-02-10T03:17:40.689Z,2.80
2019-02-10T03:20:10.162Z,3.60
2019-02-10T03:22:39.280Z,3.77
2019-02-10T03:25:08.837Z,3.62
2019-02-10T03:27:37.956Z,4.20
2019-02-10T03:30:09.669Z,3.80
2019-02-10T03:32:39.221Z,3.22
2019-02-10T03:35:09.606Z,3.58
2019-02-10T03:37:38.721Z,3.60
2019-02-10T03:40:11.387Z,2.92
2019-02-10T03:42:40.708Z,4.17
2019-02-10T03:45:09.982Z,3.75
2019-02-10T03:47:39.093Z,3.10
2019-02-10T03:50:09.740Z,4.20
2019-02-10T03:52:38.853Z,3.22
2019-02-10T03:55:08.753Z,4.78
2019-02-10T03:57:37.865Z,4.60
2019-02-10T04:00:11.958Z,4.60
2019-02-10T04:02:41.366Z,3.90
2019-02-10T04:05:10.471Z,4.08
2019-02-10T04:07:39.813Z,4.55
2019-02-10T04:10:10.596Z,3.98
2019-02-10T04:12:39.705Z,3.70
2019-02-10T04:15:09.203Z,4.28
2019-02-10T04:17:38.315Z,3.72
2019-02-10T04:20:08.855Z,3.60
2019-02-10T04:22:38.010Z,3.00
2019-02-10T04:25:07.490Z,3.30
2019-02-10T08:12:22.585Z,2.90
2019-02-10T08:14:57.449Z,2.33
2019-02-10T08:17:44.260Z,1.98
2019-02-10T08:20:34.533Z,1.92
2019-02-10T08:23:07.211Z,1.60
2019-02-10T08:25:42.553Z,1.77
2019-02-10T08:28:34.526Z,1.75
2019-02-10T08:31:40.504Z,1.70
2019-02-10T08:34:12.863Z,1.50
2019-02-10T08:36:45.224Z,1.42
2019-02-10T08:39:32.481Z,1.20
2019-02-10T08:42:13.948Z,1.30
2019-02-10T08:44:58.177Z,1.12
2019-02-10T08:47:36.061Z,1.10
2019-02-10T08:50:23.777Z,1.20
2019-02-10T08:53:07.897Z,1.22
2019-02-10T08:58:05.372Z,1.25
2019-02-10T09:00:34.699Z,1.00
2019-02-10T09:03:03.806Z,1.40
2019-02-10T09:05:33.229Z,1.17
2019-02-10T09:08:03.402Z,0.98
2019-02-10T09:10:32.572Z,1.00
2019-02-10T09:13:01.673Z,1.00
2019-02-10T09:15:31.013Z,1.12
2019-02-10T09:18:00.114Z,1.00
2019-02-10T09:20:29.447Z,1.12
2019-02-10T09:22:58.577Z,1.00
2019-02-10T09:25:27.695Z,1.10
2019-02-10T09:27:56.955Z,1.12
2019-02-10T09:30:26.106Z,0.90
2019-02-10T09:32:55.310Z,0.95
2019-02-10T09:35:24.667Z,1.00
2019-02-10T09:37:54.053Z,0.72
2019-02-10T09:40:23.180Z,0.90
2019-02-10T09:42:52.317Z,0.88
2019-02-10T09:45:21.747Z,2.12
2019-02-10T09:47:50.920Z,2.40
2019-02-10T09:50:20.412Z,1.10
2019-02-10T09:52:49.813Z,1.00
2019-02-10T09:55:18.916Z,0.85
2019-02-10T09:57:48.055Z,1.00
2019-02-10T10:00:17.175Z,0.90
2019-02-10T10:02:46.563Z,0.70
2019-02-10T10:05:15.972Z,0.88
2019-02-10T10:07:45.116Z,0.78
2019-02-10T10:10:14.616Z,0.65
2019-02-10T10:12:43.751Z,0.85
2019-02-10T10:15:15.569Z,0.70
2019-02-10T10:17:44.726Z,1.05
2019-02-10T10:20:18.447Z,0.88
2019-02-10T10:25:15.984Z,0.88
2019-02-10T10:27:45.109Z,0.70
2019-02-10T10:30:22.331Z,0.80
2019-02-10T10:32:51.518Z,0.85
2019-02-10T10:35:20.641Z,0.95
2019-02-10T10:37:49.793Z,0.78
2019-02-10T10:40:18.920Z,0.60
2019-02-10T10:42:48.064Z,0.55
2019-02-10T10:45:17.503Z,0.60
2019-02-10T10:47:47.827Z,1.37
2019-02-10T10:50:17.165Z,0.62
2019-02-10T10:52:46.302Z,0.60
2019-02-10T10:55:15.434Z,0.40
2019-02-10T10:57:44.555Z,0.40
2019-02-10T11:00:14.812Z,0.57
2019-02-10T11:02:43.969Z,0.70
2019-02-10T11:05:14.871Z,0.40
2019-02-10T11:07:44.150Z,0.80
2019-02-10T11:10:13.454Z,0.70
2019-02-10T11:12:42.592Z,0.70
2019-02-10T11:15:13.611Z,0.60
2019-02-10T11:17:42.744Z,0.72
2019-02-10T11:20:13.021Z,0.70
2019-02-10T11:22:42.368Z,0.95
2019-02-10T11:25:11.958Z,0.70
2019-02-10T11:27:42.104Z,1.07
2019-02-10T11:30:13.837Z,1.20
2019-02-10T11:32:42.974Z,1.07
2019-02-10T11:35:12.102Z,1.20
2019-02-10T11:37:41.491Z,1.77
2019-02-10T11:40:13.665Z,1.10
2019-02-10T11:42:43.037Z,1.47
2019-02-10T11:45:14.372Z,1.20
2019-02-10T11:47:43.566Z,1.60
2019-02-10T11:50:13.600Z,1.57
2019-02-10T11:52:42.763Z,1.70
2019-02-10T11:55:12.498Z,1.17
2019-02-10T11:57:41.668Z,1.07
2019-02-10T12:00:13.233Z,0.95
2019-02-10T12:02:42.620Z,0.93
2019-02-10T12:05:11.836Z,1.12
2019-02-10T12:07:40.955Z,0.90
2019-02-10T12:10:13.539Z,0.98
2019-02-10T12:12:42.671Z,1.20
2019-02-10T12:15:14.299Z,1.02
2019-02-10T12:17:43.672Z,1.00
2019-02-10T12:20:16.579Z,1.22
2019-02-10T12:22:50.280Z,1.40
2019-02-10T12:25:16.716Z,1.52
2019-02-10T12:27:46.084Z,1.32
2019-02-10T12:30:16.065Z,1.70
2019-02-10T12:32:45.177Z,1.55
2019-02-10T12:35:14.321Z,1.62
2019-02-10T12:37:43.427Z,1.40
2019-02-10T12:40:12.669Z,1.50
2019-02-10T12:42:41.814Z,1.50
2019-02-10T12:45:14.637Z,1.20
2019-02-10T12:47:43.749Z,1.50
2019-02-10T12:50:13.568Z,1.32
2019-02-10T12:52:42.681Z,1.30
2019-02-10T12:55:12.367Z,1.30
2019-02-10T12:57:41.486Z,1.05
2019-02-10T13:00:16.212Z,1.30
2019-02-10T13:02:45.337Z,1.20
2019-02-10T13:05:15.431Z,1.30
2019-02-10T13:07:44.546Z,1.57
2019-02-10T13:10:18.220Z,1.20
2019-02-10T13:12:46.770Z,1.45
2019-02-10T13:15:15.908Z,1.00
2019-02-10T13:17:45.336Z,1.40
2019-02-10T13:20:14.481Z,1.20
2019-02-10T13:22:43.606Z,1.52
2019-02-10T13:25:14.934Z,1.10
2019-02-10T13:27:44.229Z,1.40
2019-02-10T13:30:17.265Z,1.17
2019-02-10T13:32:46.396Z,1.60
2019-02-10T13:35:15.522Z,1.70
2019-02-10T13:37:44.903Z,1.60
2019-02-10T13:40:17.095Z,1.60
2019-02-10T13:42:46.297Z,1.52
2019-02-10T13:45:15.435Z,1.70
2019-02-10T13:47:44.797Z,1.90
2019-02-10T13:50:18.957Z,1.55
2019-02-10T13:52:48.151Z,1.62
2019-02-10T13:55:17.338Z,1.60
2019-02-10T13:57:46.463Z,1.87
2019-02-10T14:00:20.459Z,1.55
2019-02-10T14:02:49.636Z,1.47
2019-02-10T14:05:18.790Z,2.00
2019-02-10T14:07:50.671Z,1.70
2019-02-10T14:10:25.176Z,2.00
2019-02-10T14:12:50.616Z,2.30
2019-02-10T14:15:20.549Z,2.20
2019-02-10T14:17:49.670Z,2.33
2019-02-10T14:20:19.442Z,2.00
2019-02-10T14:22:48.892Z,2.58
2019-02-10T14:25:18.004Z,2.25
2019-02-10T14:27:47.168Z,2.20
2019-02-10T14:30:21.525Z,2.25
2019-02-10T14:32:50.688Z,1.90
2019-02-10T14:35:19.803Z,2.52
2019-02-10T14:37:48.951Z,2.52
2019-02-10T14:40:18.075Z,2.25
2019-02-10T14:42:47.473Z,2.70
2019-02-10T14:45:16.895Z,2.45
2019-02-10T14:47:47.010Z,2.80
2019-02-10T14:50:18.135Z,2.22
2019-02-10T14:52:47.255Z,2.98
2019-02-10T14:55:16.368Z,1.77
2019-02-10T14:57:45.522Z,1.40
2019-02-10T15:00:15.883Z,1.50
2019-02-10T15:02:44.970Z,1.30
2019-02-10T15:05:14.086Z,1.47
2019-02-10T15:07:43.223Z,1.05
2019-02-10T15:10:18.143Z,1.25
2019-02-10T15:12:47.586Z,0.98
2019-02-10T15:15:16.712Z,1.10
2019-02-10T15:17:45.817Z,1.35
2019-02-10T15:20:14.920Z,1.35
2019-02-10T15:22:44.021Z,1.80
2019-02-10T15:25:14.749Z,0.90
2019-02-10T15:27:44.082Z,1.15
2019-02-10T15:30:16.826Z,2.98
2019-02-10T15:32:45.925Z,1.25
2019-02-10T15:35:15.026Z,1.10
2019-02-10T15:37:44.129Z,3.15
2019-02-10T15:40:13.732Z,1.77
2019-02-10T15:42:43.163Z,1.50
2019-02-10T15:45:13.415Z,1.47
2019-02-10T15:47:42.511Z,1.50
2019-02-10T15:50:13.059Z,2.50
2019-02-10T15:52:42.168Z,1.57
2019-02-10T15:55:14.255Z,1.22
2019-02-10T15:57:43.354Z,2.42
2019-02-10T16:00:28.199Z,3.55
2019-02-10T16:02:57.306Z,3.72
2019-02-10T16:05:26.415Z,2.75
2019-02-10T16:07:55.510Z,1.47
2019-02-10T16:10:24.622Z,1.60
2019-02-10T16:12:53.729Z,1.30
2019-02-10T16:15:22.842Z,1.50
2019-02-10T16:17:51.938Z,1.80
2019-02-10T16:20:21.047Z,1.85
2019-02-10T16:22:50.151Z,1.90
2019-02-10T16:25:19.260Z,1.95
2019-02-10T16:27:48.430Z,1.75
2019-02-10T16:30:18.607Z,1.60
2019-02-10T16:32:49.897Z,1.40
2019-02-10T16:35:18.486Z,1.80
2019-02-10T16:37:47.589Z,1.82
2019-02-10T16:40:21.014Z,1.70
2019-02-10T16:42:50.120Z,2.00
2019-02-10T16:45:19.474Z,2.20
2019-02-10T16:47:48.578Z,2.65
2019-02-10T16:50:17.855Z,2.95
2019-02-10T16:52:46.954Z,4.72
2019-02-10T16:55:20.226Z,5.33
2019-02-10T16:57:49.603Z,4.92
2019-02-10T17:00:18.723Z,3.80
2019-02-10T17:02:47.829Z,4.12
2019-02-10T17:05:17.011Z,4.12
2019-02-10T17:07:46.404Z,4.08
2019-02-10T17:10:19.771Z,4.53
2019-02-10T17:12:48.980Z,5.10
2019-02-10T17:15:18.034Z,5.95
2019-02-10T17:17:47.439Z,5.37
2019-02-10T17:20:16.609Z,5.85
2019-02-10T17:22:46.687Z,5.37
2019-02-10T17:25:24.138Z,5.90
2019-02-10T17:27:53.244Z,5.37
2019-02-10T17:30:22.343Z,5.70
2019-02-10T17:32:51.474Z,5.75
2019-02-10T17:35:20.586Z,5.75
2019-02-10T17:37:49.681Z,6.03
2019-02-10T17:40:38.436Z,5.47
2019-02-10T17:43:07.543Z,6.40
2019-02-10T17:45:36.650Z,6.58
2019-02-10T17:48:05.756Z,8.93
2019-02-10T17:50:34.868Z,10.55
2019-02-10T17:53:03.979Z,8.43
2019-02-10T17:55:33.077Z,7.60
2019-02-10T17:58:02.258Z,8.03
2019-02-10T18:00:32.997Z,7.58
2019-02-10T18:03:02.178Z,8.38
2019-02-10T18:05:31.578Z,9.40
2019-02-10T18:08:00.691Z,8.10
2019-02-10T18:10:29.787Z,8.00
2019-02-10T18:12:59.130Z,8.05
2019-02-10T18:15:38.557Z,6.75
2019-02-10T18:18:25.344Z,8.03
2019-02-10T18:20:59.153Z,9.20
2019-02-10T18:26:27.006Z,6.62
2019-02-10T18:28:57.758Z,6.85
2019-02-10T18:31:44.963Z,6.00
2019-02-10T18:34:21.712Z,6.22
2019-02-10T18:36:55.904Z,6.65
2019-02-10T18:39:32.671Z,5.03
2019-02-10T18:42:06.066Z,5.20
2019-02-10T18:44:42.833Z,3.90
2019-02-10T18:47:22.376Z,3.65
2019-02-10T18:49:53.122Z,3.02
2019-02-10T18:52:26.640Z,2.50
2019-02-10T18:54:57.393Z,2.62
2019-02-10T18:57:28.130Z,3.30
2019-02-10T19:00:04.920Z,3.70
2019-02-10T19:02:35.827Z,3.77
2019-02-10T19:05:16.666Z,3.42
2019-02-10T19:07:56.654Z,4.70
2019-02-10T19:10:30.313Z,4.65
2019-02-10T19:13:06.530Z,4.87
2019-02-10T19:15:37.289Z,5.15
2019-02-10T19:18:08.052Z,5.65
2019-02-10T19:20:38.817Z,7.45
2019-02-10T19:23:25.820Z,6.58
2019-02-10T19:26:02.346Z,4.10
2019-02-10T19:28:33.327Z,4.10
2019-02-10T19:31:10.275Z,3.45
2019-02-10T19:33:56.961Z,5.03
2019-02-10T19:36:33.392Z,4.60
2019-02-10T19:39:10.092Z,5.05
2019-02-10T19:41:43.510Z,6.12
2019-02-10T19:44:14.254Z,6.22
2019-02-10T19:46:45.229Z,6.42
2019-02-10T19:49:15.964Z,7.12
2019-02-10T19:51:55.759Z,7.30
2019-02-10T19:54:26.493Z,7.55
2019-02-10T19:57:08.813Z,8.38
2019-02-10T19:59:45.500Z,8.03
2019-02-10T20:02:28.199Z,8.63
2019-02-10T20:05:14.902Z,10.35
2019-02-10T20:07:51.557Z,7.92
2019-02-10T20:10:25.459Z,7.60
2019-02-10T20:13:01.920Z,7.25
2019-02-10T20:15:35.336Z,8.50
2019-02-10T20:18:12.111Z,6.25
2019-02-10T20:20:57.888Z,8.05
2019-02-10T20:23:34.759Z,6.70
2019-02-10T20:26:08.425Z,6.50
2019-02-10T20:28:55.157Z,5.25
2019-02-10T20:31:42.102Z,5.50
2019-02-10T20:34:12.891Z,4.87
2019-02-10T20:36:43.671Z,5.17
2019-02-10T20:39:22.867Z,4.12
2019-02-10T20:42:02.410Z,3.80
2019-02-10T20:44:44.994Z,4.40
2019-02-10T20:47:18.762Z,3.60
2019-02-10T20:52:28.120Z,3.20
2019-02-10T20:55:07.382Z,3.27
2019-02-10T20:57:49.965Z,2.52
2019-02-10T21:00:21.683Z,3.25
2019-02-10T21:02:58.705Z,3.05
2019-02-10T21:05:45.481Z,2.67
2019-02-10T21:08:16.221Z,3.42
2019-02-10T21:10:46.967Z,2.75
2019-02-10T21:13:17.706Z,2.47
2019-02-10T21:15:56.978Z,2.10
2019-02-10T21:18:27.713Z,1.55
2019-02-10T21:20:58.508Z,2.05
2019-02-10T21:23:29.248Z,2.27
2019-02-10T21:25:59.985Z,2.58
2019-02-10T21:28:36.638Z,2.45
2019-02-10T21:31:13.077Z,2.37
2019-02-10T21:33:44.081Z,2.40
2019-02-10T21:36:26.510Z,2.67
2019-02-10T21:39:00.157Z,2.75
2019-02-10T21:41:36.782Z,3.58
2019-02-10T21:44:16.250Z,4.28
2019-02-10T21:47:02.034Z,4.00
2019-02-10T21:49:31.144Z,5.75
2019-02-10T21:52:00.250Z,4.80
2019-02-10T21:54:29.470Z,5.10
2019-02-10T21:56:58.575Z,4.33
2019-02-10T21:59:27.686Z,3.70
2019-02-10T22:01:56.797Z,3.27
2019-02-10T22:04:25.909Z,4.10
2019-02-10T22:06:55.032Z,3.83
2019-02-10T22:09:24.143Z,3.83
2019-02-10T22:11:53.258Z,3.75
2019-02-10T22:14:22.372Z,3.95
2019-02-10T22:16:51.486Z,3.58
2019-02-10T22:19:20.598Z,3.92
2019-02-10T22:21:49.705Z,4.60
2019-02-10T22:24:18.819Z,4.00
2019-02-10T22:26:47.931Z,5.53
2019-02-10T22:29:17.076Z,4.58
2019-02-10T22:31:46.182Z,5.20
2019-02-10T22:34:15.572Z,4.12
2019-02-10T22:36:44.684Z,4.12
2019-02-10T22:39:14.071Z,4.67
2019-02-10T22:41:43.483Z,4.78
2019-02-10T22:44:12.594Z,4.55
2019-02-10T22:46:41.699Z,3.65
2019-02-10T22:49:10.830Z,4.90
2019-02-10T22:51:39.931Z,4.30
2019-02-10T22:54:09.057Z,3.50
2019-02-10T22:56:38.162Z,3.30
2019-02-10T22:59:07.283Z,3.80
2019-02-10T23:01:36.655Z,3.37
2019-02-10T23:04:05.774Z,3.10
2019-02-10T23:06:34.880Z,3.27
2019-02-10T23:09:06.203Z,3.15
2019-02-10T23:11:35.679Z,4.12
2019-02-10T23:14:04.807Z,4.60
2019-02-10T23:16:33.911Z,4.95
2019-02-10T23:19:03.020Z,5.37
2019-02-10T23:21:32.128Z,6.33
2019-02-10T23:24:01.243Z,5.22
2019-02-10T23:26:30.690Z,5.53
2019-02-10T23:29:00.023Z,4.70
2019-02-10T23:31:29.145Z,4.90
2019-02-10T23:33:58.249Z,4.45
2019-02-10T23:36:27.362Z,5.22
2019-02-10T23:38:56.790Z,5.87
2019-02-10T23:41:25.903Z,5.58
2019-02-10T23:43:55.007Z,5.12
2019-02-10T23:46:24.122Z,4.95
2019-02-10T23:48:53.503Z,4.78
2019-02-10T23:51:22.604Z,4.55
2019-02-10T23:53:51.987Z,4.10
2019-02-10T23:56:21.101Z,4.17
2019-02-10T23:58:50.229Z,4.08
